Champlin, Illinois
Current Conditions -  °F | °C
As of 8:35 AM on Friday 28 Nov 2014 (Local Time) from KPNT Reporting Station
Scattered Clouds Scattered Clouds  
Wind Chill: 11°   Ceiling: Unl
Heat Index: 23°   Visibility: 10mi
Dew Point: 16°   Wind: 14mph
Humidity: 75%   Direction: 140°SE
Pressure: 30.25"   Gusts: NA
Location:  40.7318°N, 88.524°W
Report Text: KPNT 281435Z AUTO 14012KT 10SM SCT120 M05/M09 A3025 RMK AO2 T10501088
Loading
Personal Weather Stations






























Interactive Weather Map New forecast layout! Learn more

10-Day Weather Forecast

Advertisements
Track Severe Weather on mobile